Time;durP1;ratioP1;P1;durP2;ratioP2;P2;SDS_P1;SDS_P2;PMS_P1;PMS_P2;Temp;Humidity;BMP_temperature;BMP_pressure;BME280_temperature;BME280_humidity;BME280_pressure;Samples;Min_cycle;Max_cycle;Signal;HPM_P1;HPM_P2
2021/06/14 00:01:34;;;;;;;7.47;6.10;;;14.80;1.00;;;;;;5090459;28;20428;-63
2021/06/14 00:03:59;;;;;;;10.47;7.47;;;14.90;1.00;;;;;;5072352;28;20192;-66
2021/06/14 00:06:25;;;;;;;7.73;6.40;;;14.80;1.00;;;;;;5090276;28;20441;-66
2021/06/14 00:08:51;;;;;;;12.93;6.53;;;14.80;1.00;;;;;;5090578;28;20183;-64
2021/06/14 00:11:16;;;;;;;7.63;6.90;;;14.80;1.00;;;;;;5090515;28;20236;-64
2021/06/14 00:13:42;;;;;;;8.13;6.70;;;14.80;1.00;;;;;;5090095;28;20263;-66
2021/06/14 00:16:09;;;;;;;8.60;6.00;;;14.80;1.00;;;;;;5090178;28;20186;-67
2021/06/14 00:18:36;;;;;;;7.27;6.00;;;14.70;1.00;;;;;;5090151;28;20785;-66
2021/06/14 00:21:09;;;;;;;8.70;6.27;;;14.70;1.00;;;;;;5090152;28;20949;-65
2021/06/14 00:23:36;;;;;;;7.23;5.50;;;14.60;1.00;;;;;;5090062;28;20448;-65
2021/06/14 00:26:04;;;;;;;9.13;6.97;;;14.60;1.00;;;;;;5074840;28;20441;-66
2021/06/14 00:28:30;;;;;;;7.37;6.63;;;14.50;1.00;;;;;;5073834;28;20483;-66
2021/06/14 00:30:56;;;;;;;7.37;6.50;;;14.50;1.00;;;;;;5073311;28;20469;-66
2021/06/14 00:33:22;;;;;;;9.47;6.17;;;14.50;1.00;;;;;;5073539;28;20531;-65
2021/06/14 00:35:48;;;;;;;8.27;7.13;;;14.50;1.00;;;;;;5074010;28;20491;-65
2021/06/14 00:38:15;;;;;;;6.87;6.00;;;14.40;1.00;;;;;;5073321;28;20926;-64
2021/06/14 00:40:43;;;;;;;8.13;6.00;;;14.50;1.00;;;;;;5073418;28;20452;-65
2021/06/14 00:43:10;;;;;;;8.60;6.30;;;14.50;1.00;;;;;;5073252;28;20425;-66
2021/06/14 00:45:43;;;;;;;7.40;6.53;;;14.40;1.00;;;;;;5073165;28;20441;-66
2021/06/14 00:48:09;;;;;;;9.80;6.10;;;14.50;1.00;;;;;;5073380;28;20436;-67
2021/06/14 00:50:46;;;;;;;9.57;6.60;;;14.40;1.00;;;;;;5073115;28;20449;-66
2021/06/14 00:53:19;;;;;;;8.03;6.90;;;14.40;1.00;;;;;;5072903;28;20468;-66
2021/06/14 00:55:45;;;;;;;6.53;5.53;;;14.40;1.00;;;;;;5073205;28;20468;-65
2021/06/14 00:58:11;;;;;;;6.20;5.60;;;14.40;1.00;;;;;;5073293;28;20476;-67
2021/06/14 01:00:38;;;;;;;8.47;6.03;;;14.40;1.00;;;;;;5072881;28;20441;-65
2021/06/14 01:03:04;;;;;;;7.70;6.23;;;14.30;1.00;;;;;;5073041;28;20502;-65
2021/06/14 01:05:36;;;;;;;12.07;6.17;;;14.30;1.00;;;;;;5072854;28;21007;-64
2021/06/14 01:08:01;;;;;;;11.43;6.47;;;14.20;1.00;;;;;;5072916;28;20583;-65
2021/06/14 01:10:27;;;;;;;9.60;6.50;;;14.10;1.00;;;;;;5072581;28;20528;-66
2021/06/14 01:13:05;;;;;;;9.67;6.00;;;14.00;1.00;;;;;;5071691;28;20234;-65
2021/06/14 01:15:33;;;;;;;11.47;5.60;;;14.10;1.00;;;;;;5072586;28;20195;-66
2021/06/14 01:18:02;;;;;;;13.77;6.53;;;14.00;1.00;;;;;;5072823;28;20456;-65
2021/06/14 01:20:50;;;;;;;9.20;6.67;;;14.10;1.00;;;;;;5072669;28;20434;-65
2021/06/14 01:23:30;;;;;;;11.00;6.90;;;14.00;1.00;;;;;;5068550;28;20437;-66
2021/06/14 01:26:03;;;;;;;9.50;6.67;;;14.00;1.00;;;;;;5072400;28;20783;-65
2021/06/14 01:28:31;;;;;;;8.00;6.57;;;14.00;1.00;;;;;;5070930;28;20495;-66
2021/06/14 01:30:57;;;;;;;7.20;6.50;;;14.00;1.00;;;;;;5086430;28;20538;-65
2021/06/14 01:33:26;;;;;;;8.10;6.20;;;14.00;1.00;;;;;;5077204;28;20463;-65
2021/06/14 01:35:56;;;;;;;8.53;6.07;;;13.90;1.00;;;;;;5091171;28;20519;-67
2021/06/14 01:38:23;;;;;;;7.33;5.97;;;14.00;1.00;;;;;;5092903;28;20478;-66
2021/06/14 01:40:51;;;;;;;7.80;6.10;;;14.00;1.00;;;;;;5092448;28;20432;-67
2021/06/14 01:43:19;;;;;;;10.73;6.67;;;13.90;1.00;;;;;;5091321;28;20436;-67
2021/06/14 01:45:51;;;;;;;7.73;5.80;;;13.90;1.00;;;;;;5092052;28;20578;-65
2021/06/14 01:48:18;;;;;;;8.07;5.63;;;13.90;1.00;;;;;;5092930;28;20831;-65
2021/06/14 01:50:44;;;;;;;8.20;6.33;;;13.90;1.00;;;;;;5092272;28;20794;-65
2021/06/14 01:53:10;;;;;;;7.40;5.90;;;13.90;1.00;;;;;;5092764;28;20472;-67
2021/06/14 01:55:36;;;;;;;12.60;6.57;;;13.80;1.00;;;;;;5092410;28;20432;-66
2021/06/14 01:58:03;;;;;;;9.13;6.27;;;13.80;1.00;;;;;;5091931;28;20544;-66
2021/06/14 02:00:29;;;;;;;7.53;6.13;;;13.80;1.00;;;;;;5092650;28;20961;-66
2021/06/14 02:02:55;;;;;;;7.70;6.47;;;13.90;1.00;;;;;;5091964;28;20440;-66
2021/06/14 02:05:25;;;;;;;10.23;6.80;;;13.80;1.00;;;;;;5092170;28;20444;-66
2021/06/14 02:07:52;;;;;;;7.03;6.30;;;13.80;1.00;;;;;;5091660;28;20198;-66
2021/06/14 02:10:19;;;;;;;5.67;5.07;;;13.70;1.00;;;;;;5084162;28;20983;-66
2021/06/14 02:12:46;;;;;;;7.57;6.87;;;13.70;1.00;;;;;;5090346;28;20614;-66
2021/06/14 02:15:13;;;;;;;10.60;6.20;;;13.60;1.00;;;;;;5091745;28;20511;-66
2021/06/14 02:17:40;;;;;;;12.53;6.70;;;13.50;1.00;;;;;;5091977;28;20491;-65
2021/06/14 02:20:09;;;;;;;11.20;6.80;;;13.60;1.00;;;;;;5088441;28;20476;-67
2021/06/14 02:22:36;;;;;;;8.87;7.17;;;13.60;1.00;;;;;;5071532;28;20444;-67
2021/06/14 02:25:05;;;;;;;9.70;7.00;;;13.60;1.00;;;;;;5071212;28;20463;-66
2021/06/14 02:27:31;;;;;;;9.70;5.70;;;13.60;1.00;;;;;;5069729;28;20470;-65
2021/06/14 02:29:56;;;;;;;9.57;6.60;;;13.50;1.00;;;;;;5071112;28;20529;-65
2021/06/14 02:32:22;;;;;;;8.10;7.17;;;13.40;1.00;;;;;;5087274;28;20245;-65
2021/06/14 02:34:49;;;;;;;7.00;6.10;;;13.40;1.00;;;;;;5090336;28;20714;-66
2021/06/14 02:37:16;;;;;;;10.60;6.20;;;13.40;1.00;;;;;;5091335;28;20447;-65
2021/06/14 02:39:43;;;;;;;9.53;7.17;;;13.50;1.00;;;;;;5091310;28;20475;-65
2021/06/14 02:42:09;;;;;;;7.17;5.97;;;13.50;1.00;;;;;;5090987;28;20772;-65
2021/06/14 02:44:36;;;;;;;8.53;6.67;;;13.50;1.00;;;;;;5078041;28;20433;-66
2021/06/14 02:47:06;;;;;;;10.90;6.10;;;13.40;1.00;;;;;;5069605;28;20503;-66
2021/06/14 02:49:32;;;;;;;7.20;6.50;;;13.40;1.00;;;;;;5070492;28;20494;-65
2021/06/14 02:51:59;;;;;;;11.97;7.77;;;13.30;1.00;;;;;;5070944;28;20523;-66
2021/06/14 02:54:30;;;;;;;8.17;6.67;;;13.40;1.00;;;;;;5083636;28;20437;-66
2021/06/14 02:56:58;;;;;;;7.60;6.73;;;13.30;1.00;;;;;;5082660;28;20469;-65
2021/06/14 02:59:26;;;;;;;8.57;6.67;;;13.30;1.00;;;;;;5081890;28;20432;-65
2021/06/14 03:01:53;;;;;;;8.50;6.90;;;13.20;1.00;;;;;;5089722;28;20463;-64
2021/06/14 03:04:19;;;;;;;7.23;6.43;;;13.30;1.00;;;;;;5090838;28;20444;-66
2021/06/14 03:06:48;;;;;;;6.83;6.23;;;13.30;1.00;;;;;;5090966;28;20865;-64
2021/06/14 03:09:15;;;;;;;7.83;6.20;;;13.20;1.00;;;;;;5090646;28;20212;-65
2021/06/14 03:11:43;;;;;;;6.60;5.90;;;13.30;1.00;;;;;;5090846;28;20758;-67
2021/06/14 03:14:12;;;;;;;9.00;6.70;;;13.40;1.00;;;;;;5090882;28;20440;-66
2021/06/14 03:16:38;;;;;;;10.63;6.40;;;13.40;1.00;;;;;;5090738;28;20452;-65
2021/06/14 03:19:05;;;;;;;10.13;6.40;;;13.50;1.00;;;;;;5083433;28;20844;-66
2021/06/14 03:21:33;;;;;;;12.40;7.63;;;13.50;1.00;;;;;;5070353;28;20439;-66
2021/06/14 03:23:59;;;;;;;8.17;6.97;;;13.50;1.00;;;;;;5070705;28;20787;-67
2021/06/14 03:26:31;;;;;;;7.27;6.03;;;13.40;1.00;;;;;;5070290;28;20442;-67
2021/06/14 03:28:58;;;;;;;8.97;6.37;;;13.50;1.00;;;;;;5070334;28;20215;-66
2021/06/14 03:31:26;;;;;;;7.17;6.13;;;13.70;1.00;;;;;;5070195;28;20934;-65
2021/06/14 03:33:51;;;;;;;7.60;6.23;;;13.90;1.00;;;;;;5070336;28;20472;-67
2021/06/14 03:36:20;;;;;;;9.50;5.93;;;14.10;1.00;;;;;;5070169;28;20430;-65
2021/06/14 03:38:47;;;;;;;7.47;5.93;;;14.20;1.00;;;;;;5085663;28;20528;-65
2021/06/14 03:41:13;;;;;;;8.03;5.77;;;14.40;1.00;;;;;;5090642;28;20433;-67
2021/06/14 03:43:39;;;;;;;6.73;6.03;;;14.50;1.00;;;;;;5089111;28;20440;-67
2021/06/14 03:46:05;;;;;;;7.23;5.57;;;14.60;1.00;;;;;;5090329;28;20424;-66
2021/06/14 03:48:31;;;;;;;6.33;5.73;;;15.00;1.00;;;;;;5090188;28;20197;-65
2021/06/14 03:50:56;;;;;;;8.23;6.70;;;15.10;1.00;;;;;;5089243;28;20445;-66
2021/06/14 03:53:30;;;;;;;7.00;6.10;;;15.10;1.00;;;;;;5090480;28;20255;-66
2021/06/14 03:55:56;;;;;;;8.17;6.43;;;15.00;1.00;;;;;;5090558;28;20182;-65
2021/06/14 03:58:22;;;;;;;11.53;6.70;;;14.70;1.00;;;;;;5078013;28;20991;-66
2021/06/14 04:00:47;;;;;;;9.20;6.33;;;14.70;1.00;;;;;;5071548;28;20433;-65
2021/06/14 04:03:13;;;;;;;11.10;6.93;;;14.70;1.00;;;;;;5074038;28;20176;-67
2021/06/14 04:05:38;;;;;;;7.23;6.53;;;14.50;1.00;;;;;;5073788;28;20203;-66
2021/06/14 04:08:04;;;;;;;8.23;6.90;;;14.30;1.00;;;;;;5072807;28;20456;-66
2021/06/14 04:10:30;;;;;;;11.03;6.90;;;14.30;1.00;;;;;;5074178;28;20184;-65
2021/06/14 04:12:55;;;;;;;10.00;6.73;;;14.20;1.00;;;;;;5073944;28;20199;-66
2021/06/14 04:15:21;;;;;;;9.40;7.63;;;14.20;1.00;;;;;;5072561;28;20249;-66
2021/06/14 04:17:47;;;;;;;8.10;6.67;;;14.20;1.00;;;;;;5073585;28;20695;-66
2021/06/14 04:20:13;;;;;;;8.50;6.40;;;14.20;1.00;;;;;;5073739;28;20179;-68
2021/06/14 04:22:39;;;;;;;6.97;6.03;;;14.20;1.00;;;;;;5074890;28;20290;-68
2021/06/14 04:25:05;;;;;;;7.83;6.30;;;14.30;1.00;;;;;;5093915;28;20444;-66
2021/06/14 04:27:31;;;;;;;7.33;6.10;;;14.30;1.00;;;;;;5093713;28;20233;-65
2021/06/14 04:29:57;;;;;;;9.00;6.93;;;14.30;1.00;;;;;;5092383;28;20440;-66
2021/06/14 04:32:24;;;;;;;9.43;6.50;;;14.30;1.00;;;;;;5093637;28;20549;-66
2021/06/14 04:34:53;;;;;;;8.30;6.97;;;14.40;1.00;;;;;;5093629;28;20175;-65
2021/06/14 04:37:19;;;;;;;8.57;6.50;;;14.40;1.00;;;;;;5093701;28;21081;-66
2021/06/14 04:39:45;;;;;;;8.53;7.73;;;14.50;1.00;;;;;;5092180;28;20433;-67
2021/06/14 04:42:11;;;;;;;9.83;6.40;;;14.50;1.00;;;;;;5092180;28;20445;-66
2021/06/14 04:44:36;;;;;;;8.23;6.30;;;14.50;1.00;;;;;;5093593;28;20191;-65
2021/06/14 04:47:02;;;;;;;9.63;6.70;;;14.50;1.00;;;;;;5088639;28;20264;-66
2021/06/14 04:49:27;;;;;;;6.20;5.53;;;14.60;1.00;;;;;;5073518;28;20195;-66
2021/06/14 04:51:53;;;;;;;7.67;6.80;;;14.60;1.00;;;;;;5073051;28;20262;-66
2021/06/14 04:54:18;;;;;;;7.77;5.97;;;18.00;1.00;;;;;;5073254;28;20190;-66
2021/06/14 04:56:44;;;;;;;8.70;6.10;;;14.80;1.00;;;;;;5073256;28;20714;-68
2021/06/14 04:59:10;;;;;;;7.60;6.23;;;14.90;1.00;;;;;;5073081;28;20545;-66
2021/06/14 05:01:36;;;;;;;8.10;6.93;;;15.10;1.00;;;;;;5073459;28;20172;-66
2021/06/14 05:04:01;;;;;;;7.53;5.70;;;15.10;1.00;;;;;;5073136;28;20779;-67
2021/06/14 05:06:27;;;;;;;6.73;6.10;;;15.20;1.00;;;;;;5082952;28;20269;-67
2021/06/14 05:08:52;;;;;;;9.90;6.00;;;15.30;1.00;;;;;;5072674;28;20183;-67
2021/06/14 05:11:18;;;;;;;8.47;7.00;;;15.50;1.00;;;;;;5072225;28;20175;-67
2021/06/14 05:13:43;;;;;;;8.97;6.40;;;15.40;1.00;;;;;;5072871;28;20203;-66
2021/06/14 05:16:09;;;;;;;9.10;6.83;;;15.60;1.00;;;;;;5072376;28;20671;-65
2021/06/14 05:18:35;;;;;;;8.50;6.20;;;15.60;1.00;;;;;;5072535;28;20270;-66
2021/06/14 05:21:00;;;;;;;7.97;7.30;;;15.80;1.00;;;;;;5091797;28;20533;-66
2021/06/14 05:23:26;;;;;;;9.33;6.87;;;15.80;1.00;;;;;;5092646;28;20179;-66
2021/06/14 05:25:51;;;;;;;9.73;6.90;;;15.90;1.00;;;;;;5092632;28;20385;-65
2021/06/14 05:28:17;;;;;;;8.07;6.77;;;16.00;1.00;;;;;;5092297;28;20668;-68
2021/06/14 05:30:42;;;;;;;9.13;6.50;;;16.10;1.00;;;;;;5090971;28;20187;-68
2021/06/14 05:33:08;;;;;;;7.33;6.50;;;16.20;1.00;;;;;;5092438;28;20215;-66
2021/06/14 05:35:33;;;;;;;9.83;6.10;;;16.40;1.00;;;;;;5092660;28;20174;-67
2021/06/14 05:37:59;;;;;;;9.67;7.13;;;16.50;1.00;;;;;;5080682;28;20180;-68
2021/06/14 05:40:25;;;;;;;7.63;6.20;;;16.60;1.00;;;;;;5072075;28;20180;-67
2021/06/14 05:42:50;;;;;;;13.30;8.53;;;16.70;1.00;;;;;;5072197;28;20332;-65
2021/06/14 05:45:16;;;;;;;9.50;6.60;;;16.70;1.00;;;;;;5071850;28;20696;-65
2021/06/14 05:47:42;;;;;;;7.40;6.10;;;16.70;1.00;;;;;;5072157;28;20274;-66
2021/06/14 05:50:08;;;;;;;7.77;5.80;;;16.60;1.00;;;;;;5071834;28;20417;-68
2021/06/14 05:52:34;;;;;;;8.83;6.80;;;16.70;1.00;;;;;;5071554;28;20457;-65
2021/06/14 05:55:00;;;;;;;8.47;7.10;;;16.80;1.00;;;;;;5071857;28;20786;-65
2021/06/14 05:57:26;;;;;;;7.67;6.10;;;17.00;1.00;;;;;;5070236;28;20595;-66
2021/06/14 05:59:51;;;;;;;7.53;6.33;;;17.00;1.00;;;;;;5071729;28;20224;-65
2021/06/14 06:02:17;;;;;;;10.67;7.00;;;17.10;1.00;;;;;;5069986;28;20545;-65
2021/06/14 06:04:42;;;;;;;10.67;6.27;;;17.20;1.00;;;;;;5071420;28;20180;-66
2021/06/14 06:07:08;;;;;;;13.97;6.80;;;17.30;1.00;;;;;;5070010;28;20429;-67
2021/06/14 06:09:33;;;;;;;9.90;6.23;;;17.40;1.00;;;;;;5071001;28;20187;-66
2021/06/14 06:11:59;;;;;;;12.00;7.73;;;17.70;1.00;;;;;;5071024;28;20598;-67
2021/06/14 06:14:25;;;;;;;7.47;5.57;;;17.80;1.00;;;;;;5071175;28;20537;-66
2021/06/14 06:16:51;;;;;;;6.60;5.80;;;17.90;1.00;;;;;;5072925;28;20179;-67
2021/06/14 06:19:17;;;;;;;9.53;6.40;;;18.10;1.00;;;;;;5091234;28;20926;-67
2021/06/14 06:21:43;;;;;;;8.93;6.20;;;18.40;1.00;;;;;;5089958;28;20185;-67
2021/06/14 06:24:09;;;;;;;7.30;5.70;;;18.60;1.00;;;;;;5090748;28;20437;-66
2021/06/14 06:26:35;;;;;;;12.07;6.30;;;18.60;1.00;;;;;;5091154;28;20440;-67
2021/06/14 06:29:02;;;;;;;7.90;6.40;;;18.70;1.00;;;;;;5091070;28;20218;-67
2021/06/14 06:31:28;;;;;;;10.13;6.57;;;18.80;1.00;;;;;;5068460;28;20525;-66
2021/06/14 06:33:53;;;;;;;13.37;6.67;;;19.00;1.00;;;;;;5070921;28;20953;-67
2021/06/14 06:36:19;;;;;;;6.83;6.13;;;19.20;1.00;;;;;;5070752;28;20691;-67
2021/06/14 06:38:44;;;;;;;8.77;6.60;;;19.10;1.00;;;;;;5070662;28;20710;-67
2021/06/14 06:41:10;;;;;;;15.40;6.60;;;19.30;1.00;;;;;;5070704;28;20262;-67
2021/06/14 06:43:35;;;;;;;13.23;6.23;;;19.40;1.00;;;;;;5070879;28;20218;-67
2021/06/14 06:46:02;;;;;;;9.53;6.20;;;19.50;1.00;;;;;;5070486;28;20239;-68
2021/06/14 06:48:29;;;;;;;8.90;6.10;;;19.60;1.00;;;;;;5069363;28;20245;-68
2021/06/14 06:50:56;;;;;;;7.73;5.90;;;19.70;1.00;;;;;;5070741;28;20408;-67
2021/06/14 06:53:23;;;;;;;10.73;5.93;;;19.60;1.00;;;;;;5070454;28;20779;-67
2021/06/14 06:55:48;;;;;;;12.20;6.63;;;19.60;1.00;;;;;;5070372;28;20476;-67
2021/06/14 06:58:14;;;;;;;12.83;6.90;;;19.80;1.00;;;;;;5070490;28;20815;-67
2021/06/14 07:00:40;;;;;;;13.40;6.17;;;20.00;1.00;;;;;;5070322;28;20319;-66
2021/06/14 07:03:08;;;;;;;7.50;6.03;;;20.20;1.00;;;;;;5070588;28;20274;-67
2021/06/14 07:05:36;;;;;;;7.10;5.90;;;20.20;1.00;;;;;;5070493;28;20450;-68
2021/06/14 07:08:02;;;;;;;7.80;5.33;;;20.30;1.00;;;;;;5070423;28;20466;-68
2021/06/14 07:10:28;;;;;;;10.50;6.00;;;20.30;1.00;;;;;;5070496;28;20433;-70
2021/06/14 07:12:53;;;;;;;9.60;5.80;;;20.60;1.00;;;;;;5070160;28;20991;-68
2021/06/14 07:15:19;;;;;;;9.30;6.00;;;20.70;1.00;;;;;;5070480;28;20187;-68
2021/06/14 07:17:44;;;;;;;5.50;4.53;;;20.80;1.00;;;;;;5067554;28;20179;-68
2021/06/14 07:20:13;;;;;;;12.53;6.10;;;21.00;1.00;;;;;;5082989;28;20178;-67
2021/06/14 07:22:40;;;;;;;10.90;5.30;;;21.30;1.00;;;;;;5090359;28;20190;-67
2021/06/14 07:25:07;;;;;;;12.23;5.87;;;21.40;1.00;;;;;;5090184;28;20925;-66
2021/06/14 07:27:33;;;;;;;7.10;4.83;;;21.20;1.00;;;;;;5089914;28;20766;-69
2021/06/14 07:29:59;;;;;;;6.30;4.67;;;21.00;1.00;;;;;;5090260;28;20446;-67
2021/06/14 07:32:25;;;;;;;8.30;5.43;;;21.20;1.00;;;;;;5089955;28;20495;-68
2021/06/14 07:34:51;;;;;;;10.13;6.00;;;21.10;1.00;;;;;;5092814;28;20474;-67
2021/06/14 07:37:18;;;;;;;8.00;4.53;;;21.20;1.00;;;;;;5097363;28;20195;-68
2021/06/14 07:39:44;;;;;;;6.20;4.30;;;21.90;1.00;;;;;;5096967;28;20171;-67
2021/06/14 07:42:10;;;;;;;6.53;4.40;;;21.70;1.00;;;;;;5096753;28;20633;-65
2021/06/14 07:44:36;;;;;;;6.30;4.47;;;21.40;1.00;;;;;;5096966;28;20575;-68
2021/06/14 07:47:01;;;;;;;8.27;4.50;;;21.40;1.00;;;;;;5095310;28;20190;-67
2021/06/14 07:49:27;;;;;;;7.33;4.50;;;21.20;1.00;;;;;;5097096;28;20210;-67
2021/06/14 07:51:53;;;;;;;9.83;4.53;;;21.40;1.00;;;;;;5096792;28;20437;-68
2021/06/14 07:54:18;;;;;;;5.57;4.20;;;21.80;1.00;;;;;;5072687;28;20198;-68
2021/06/14 07:56:46;;;;;;;7.87;4.60;;;22.10;1.00;;;;;;5076323;28;20183;-67
2021/06/14 07:59:11;;;;;;;9.73;5.47;;;22.10;1.00;;;;;;5076780;28;20282;-67
2021/06/14 08:01:37;;;;;;;8.03;3.90;;;22.10;1.00;;;;;;5076420;28;20497;-67
2021/06/14 08:04:03;;;;;;;9.10;3.80;;;22.20;1.00;;;;;;5076530;28;20195;-67
2021/06/14 08:06:28;;;;;;;6.83;4.23;;;22.20;1.00;;;;;;5076514;28;20195;-67
2021/06/14 08:08:54;;;;;;;4.97;4.13;;;22.00;1.00;;;;;;5089899;28;20992;-67
2021/06/14 08:11:21;;;;;;;8.43;4.63;;;22.00;1.00;;;;;;5095213;28;20220;-66
2021/06/14 08:13:47;;;;;;;6.73;4.40;;;22.20;1.00;;;;;;5096518;28;20964;-67
2021/06/14 08:16:13;;;;;;;7.13;3.97;;;22.40;1.00;;;;;;5096435;28;20518;-68
2021/06/14 08:21:26;;;;;;;6.30;4.90;;;22.40;1.00;;;;;;5096323;28;20505;-67
2021/06/14 08:26:36;;;;;;;6.13;4.57;;;22.10;1.00;;;;;;5096522;28;20437;-67
2021/06/14 08:29:02;;;;;;;4.93;4.30;;;22.20;1.00;;;;;;5075518;28;20473;-67
2021/06/14 08:31:30;;;;;;;7.33;4.13;;;22.20;1.00;;;;;;5076146;28;20183;-68
2021/06/14 08:33:56;;;;;;;7.97;4.73;;;22.70;1.00;;;;;;5076037;28;20478;-68
2021/06/14 08:36:23;;;;;;;5.03;3.80;;;23.00;1.00;;;;;;5076187;28;20446;-68
2021/06/14 08:38:48;;;;;;;6.57;4.70;;;23.40;1.00;;;;;;5082036;28;20437;-68
2021/06/14 08:41:21;;;;;;;7.83;4.30;;;23.60;1.00;;;;;;5096549;28;20433;-67
2021/06/14 08:43:49;;;;;;;8.17;4.83;;;23.50;1.00;;;;;;5087884;28;20202;-67
2021/06/14 08:46:15;;;;;;;9.83;4.80;;;23.20;1.00;;;;;;5072719;28;20449;-68
2021/06/14 08:48:42;;;;;;;5.70;4.20;;;23.10;1.00;;;;;;5072870;28;20449;-67
2021/06/14 08:51:09;;;;;;;5.03;3.87;;;22.80;1.00;;;;;;5072730;28;20456;-67
2021/06/14 08:53:37;;;;;;;10.03;4.60;;;22.90;1.00;;;;;;5072607;28;20465;-67
2021/06/14 08:56:04;;;;;;;6.50;4.27;;;22.80;1.00;;;;;;5072578;28;20798;-67
2021/06/14 08:58:32;;;;;;;9.20;4.77;;;22.80;1.00;;;;;;5072453;28;20934;-67
2021/06/14 09:00:57;;;;;;;5.67;4.30;;;22.80;1.00;;;;;;5072773;28;20416;-66
2021/06/14 09:03:25;;;;;;;6.47;4.67;;;23.00;1.00;;;;;;5076430;28;20480;-68
2021/06/14 09:05:50;;;;;;;9.57;4.50;;;23.50;1.00;;;;;;5092915;28;20189;-67
2021/06/14 09:08:16;;;;;;;10.50;4.63;;;23.50;1.00;;;;;;5091352;28;20448;-67
2021/06/14 09:10:41;;;;;;;6.87;4.10;;;23.30;1.00;;;;;;5092631;28;20525;-66
2021/06/14 09:13:14;;;;;;;5.30;4.20;;;23.70;1.00;;;;;;5092648;28;20301;-66
2021/06/14 09:15:45;;;;;;;6.77;3.80;;;23.50;1.00;;;;;;5086605;28;20632;-66
2021/06/14 09:18:29;;;;;;;7.80;4.07;;;23.50;1.00;;;;;;5092161;28;20456;-66
2021/06/14 09:21:08;;;;;;;6.40;3.77;;;23.30;1.00;;;;;;5092799;28;21035;-67
2021/06/14 09:23:50;;;;;;;8.80;4.50;;;23.50;1.00;;;;;;5092302;28;20513;-66
2021/06/14 09:26:38;;;;;;;7.53;4.57;;;23.50;1.00;;;;;;5092034;28;20436;-67
2021/06/14 09:29:19;;;;;;;5.70;3.83;;;23.50;1.00;;;;;;5092343;28;20539;-68
2021/06/14 09:32:03;;;;;;;4.73;4.03;;;24.00;1.00;;;;;;5092247;28;20479;-67
2021/06/14 09:34:39;;;;;;;5.20;3.40;;;23.30;1.00;;;;;;5092045;28;21024;-65
2021/06/14 09:37:07;;;;;;;6.47;3.60;;;24.10;1.00;;;;;;5092221;28;20806;-67
2021/06/14 09:39:44;;;;;;;4.73;3.50;;;24.10;1.00;;;;;;5091754;28;20407;-67
2021/06/14 09:42:30;;;;;;;4.73;3.83;;;24.10;1.00;;;;;;5092114;28;20916;-66
2021/06/14 09:45:05;;;;;;;7.90;4.00;;;24.10;1.00;;;;;;5092147;28;20415;-69
2021/06/14 09:47:31;;;;;;;7.77;4.10;;;24.00;1.00;;;;;;5089080;28;20447;-67
2021/06/14 09:50:00;;;;;;;11.73;3.53;;;24.10;1.00;;;;;;5092139;28;20531;-67
2021/06/14 09:52:26;;;;;;;6.80;3.77;;;23.70;1.00;;;;;;5092126;28;20460;-68
2021/06/14 09:54:52;;;;;;;5.17;3.50;;;23.50;1.00;;;;;;5092000;28;20497;-67
2021/06/14 09:57:28;;;;;;;7.83;3.83;;;23.50;1.00;;;;;;5091884;28;20968;-67
2021/06/14 10:00:09;;;;;;;7.93;4.03;;;23.60;1.00;;;;;;5089973;28;21514;-67
2021/06/14 10:02:35;;;;;;;6.53;3.37;;;23.80;1.00;;;;;;5091753;28;20411;-67
2021/06/14 10:05:01;;;;;;;5.57;3.70;;;24.30;1.00;;;;;;5091820;28;20419;-68
2021/06/14 10:07:27;;;;;;;5.63;3.57;;;24.50;1.00;;;;;;5091737;28;20486;-67
2021/06/14 10:09:54;;;;;;;4.33;3.23;;;24.50;1.00;;;;;;5090251;28;20910;-67
2021/06/14 10:12:19;;;;;;;7.40;3.77;;;24.90;1.00;;;;;;5091613;28;20281;-67
2021/06/14 10:14:49;;;;;;;4.50;3.90;;;24.60;1.00;;;;;;5091865;28;20948;-67
2021/06/14 10:17:15;;;;;;;6.57;3.60;;;24.50;1.00;;;;;;5091684;28;20171;-68
2021/06/14 10:19:40;;;;;;;5.37;3.20;;;24.50;1.00;;;;;;5091230;28;20440;-68
2021/06/14 10:22:07;;;;;;;12.63;3.67;;;24.20;1.00;;;;;;5091538;28;20183;-66
2021/06/14 10:24:32;;;;;;;5.53;3.37;;;24.20;1.00;;;;;;5091474;28;20666;-67
2021/06/14 10:26:58;;;;;;;4.13;2.97;;;24.20;1.00;;;;;;5091197;28;20512;-67
2021/06/14 10:29:25;;;;;;;5.27;3.63;;;24.30;1.00;;;;;;5090922;28;20219;-67
2021/06/14 10:31:51;;;;;;;4.50;3.20;;;24.10;1.00;;;;;;5082890;28;20800;-67
2021/06/14 10:34:18;;;;;;;5.47;2.77;;;24.10;1.00;;;;;;5070917;28;20451;-67
2021/06/14 10:36:54;;;;;;;5.33;3.10;;;24.00;1.00;;;;;;5069603;28;20442;-67
2021/06/14 10:39:23;;;;;;;3.03;2.73;;;24.10;1.00;;;;;;5070873;28;20914;-68
2021/06/14 10:41:49;;;;;;;5.50;4.00;;;24.20;1.00;;;;;;5070420;28;20444;-68
2021/06/14 10:44:14;;;;;;;9.07;3.77;;;24.30;1.00;;;;;;5070549;28;20433;-67
2021/06/14 10:46:45;;;;;;;7.00;3.30;;;24.50;1.00;;;;;;5070803;28;20180;-67
2021/06/14 10:49:12;;;;;;;4.33;2.90;;;24.70;1.00;;;;;;5070669;28;20194;-68
2021/06/14 10:51:40;;;;;;;3.83;3.33;;;24.40;1.00;;;;;;5070659;28;20845;-68
2021/06/14 10:54:08;;;;;;;6.63;4.10;;;24.30;1.00;;;;;;5070245;28;20457;-68
2021/06/14 10:56:33;;;;;;;6.80;3.73;;;24.50;1.00;;;;;;5069033;28;20935;-68
2021/06/14 10:59:02;;;;;;;4.33;3.37;;;24.60;1.00;;;;;;5070065;28;20426;-67
2021/06/14 11:01:32;;;;;;;5.77;3.60;;;24.70;1.00;;;;;;5070454;28;20215;-67
2021/06/14 11:03:58;;;;;;;5.13;3.60;;;24.60;1.00;;;;;;5070252;28;20404;-68
2021/06/14 11:06:26;;;;;;;6.47;2.80;;;24.50;1.00;;;;;;5070197;28;20423;-68
2021/06/14 11:09:06;;;;;;;4.70;3.20;;;24.50;1.00;;;;;;5070081;28;20424;-68
2021/06/14 11:11:47;;;;;;;4.57;3.30;;;24.70;1.00;;;;;;5073196;28;20416;-68
2021/06/14 11:14:13;;;;;;;5.53;3.10;;;25.00;1.00;;;;;;5068146;28;20469;-68
2021/06/14 11:16:40;;;;;;;5.27;3.40;;;25.20;1.00;;;;;;5070363;28;20416;-68
2021/06/14 11:19:08;;;;;;;4.20;2.20;;;25.30;1.00;;;;;;5070125;28;20460;-68
2021/06/14 11:21:34;;;;;;;4.40;3.10;;;24.90;1.00;;;;;;5070488;28;20434;-69
2021/06/14 11:24:10;;;;;;;2.70;2.47;;;24.90;1.00;;;;;;5069147;28;20424;-69
2021/06/14 11:26:36;;;;;;;4.67;3.00;;;25.10;1.00;;;;;;5070300;28;20941;-67
2021/06/14 11:29:20;;;;;;;6.30;2.70;;;25.30;1.00;;;;;;5069967;28;20560;-67
2021/06/14 11:32:02;;;;;;;6.83;3.30;;;25.40;1.00;;;;;;5070028;28;20530;-68
2021/06/14 11:34:39;;;;;;;6.57;3.20;;;25.50;1.00;;;;;;5070004;28;20815;-67
2021/06/14 11:37:05;;;;;;;5.03;2.80;;;25.40;1.00;;;;;;5089283;28;20428;-67
2021/06/14 11:39:31;;;;;;;4.53;2.83;;;25.40;1.00;;;;;;5090196;28;20754;-68
2021/06/14 11:42:11;;;;;;;4.47;2.93;;;25.60;1.00;;;;;;5088862;28;20438;-70
2021/06/14 11:44:59;;;;;;;4.73;2.67;;;26.00;1.00;;;;;;5090185;28;20399;-69
2021/06/14 11:47:28;;;;;;;7.00;3.33;;;26.50;1.00;;;;;;5090104;28;20440;-68
2021/06/14 11:49:57;;;;;;;6.97;2.77;;;26.60;1.00;;;;;;5090087;28;20476;-68
2021/06/14 11:52:35;;;;;;;5.23;3.00;;;26.70;1.00;;;;;;5088511;28;20467;-68
2021/06/14 11:55:05;;;;;;;6.77;3.37;;;27.00;1.00;;;;;;5088792;28;20424;-68
2021/06/14 11:57:33;;;;;;;5.00;3.50;;;26.80;1.00;;;;;;5069945;28;20429;-69
2021/06/14 11:59:59;;;;;;;4.20;3.80;;;26.40;1.00;;;;;;5069985;28;20430;-68
2021/06/14 12:02:27;;;;;;;3.10;2.80;;;26.20;1.00;;;;;;5070175;28;20408;-67
2021/06/14 12:05:01;;;;;;;6.50;3.13;;;26.10;1.00;;;;;;5069644;28;20408;-67
2021/06/14 12:07:33;;;;;;;3.17;2.73;;;26.10;1.00;;;;;;5069815;28;20443;-68
2021/06/14 12:10:00;;;;;;;6.80;3.40;;;26.30;1.00;;;;;;5070000;28;20971;-68
2021/06/14 12:12:26;;;;;;;5.40;2.70;;;26.20;1.00;;;;;;5069817;28;20791;-67
2021/06/14 12:14:56;;;;;;;7.47;2.80;;;26.30;1.00;;;;;;5069740;28;20522;-68
2021/06/14 12:17:33;;;;;;;6.27;2.73;;;26.10;1.00;;;;;;5069176;28;20198;-69
2021/06/14 12:20:00;;;;;;;4.90;3.37;;;26.10;1.00;;;;;;5068820;28;20419;-69
2021/06/14 12:22:29;;;;;;;4.97;3.10;;;26.00;1.00;;;;;;5071298;28;20450;-68
2021/06/14 12:25:01;;;;;;;7.93;3.20;;;25.90;1.00;;;;;;5073538;28;20507;-68
2021/06/14 12:27:26;;;;;;;3.90;2.63;;;26.10;1.00;;;;;;5072745;28;20469;-68
2021/06/14 12:30:00;;;;;;;5.77;2.83;;;26.30;1.00;;;;;;5073049;28;20548;-67
2021/06/14 12:32:29;;;;;;;4.03;2.50;;;26.40;1.00;;;;;;5073357;28;20190;-69
2021/06/14 12:34:59;;;;;;;3.50;2.93;;;26.40;1.00;;;;;;5073743;28;20425;-68
2021/06/14 12:37:26;;;;;;;5.67;3.30;;;26.20;1.00;;;;;;5086717;28;20890;-68
2021/06/14 12:40:05;;;;;;;3.53;2.60;;;26.20;1.00;;;;;;5092030;28;20440;-67
2021/06/14 12:42:32;;;;;;;4.03;2.40;;;26.10;1.00;;;;;;5073862;28;20456;-68
2021/06/14 12:45:00;;;;;;;3.80;2.47;;;26.00;1.00;;;;;;5073585;28;20427;-67
2021/06/14 12:47:27;;;;;;;3.53;2.70;;;25.90;1.00;;;;;;5092013;28;20955;-68
2021/06/14 12:49:54;;;;;;;3.67;2.77;;;25.90;1.00;;;;;;5093313;28;20780;-68
2021/06/14 12:52:21;;;;;;;8.63;2.70;;;25.80;1.00;;;;;;5075927;28;20408;-68
2021/06/14 12:54:48;;;;;;;6.57;2.50;;;25.60;1.00;;;;;;5072926;28;20404;-67
2021/06/14 12:57:14;;;;;;;10.63;2.37;;;25.10;1.00;;;;;;5081514;28;20417;-69
2021/06/14 12:59:40;;;;;;;2.70;2.20;;;;;;;;;;5093598;28;20433;-68
2021/06/14 13:02:05;;;;;;;4.40;2.60;;;25.40;1.00;;;;;;5093402;28;20502;-68
2021/06/14 13:04:31;;;;;;;5.20;2.10;;;25.40;1.00;;;;;;5093148;28;20806;-67